sensor_id;sensor_type;location;lat;lon;timestamp;temperature;humidity
13744;DHT22;6943;52.368;9.966;2022-09-09T00:00:41;14.00;99.90
13744;DHT22;6943;52.368;9.966;2022-09-09T00:03:24;14.00;99.90
13744;DHT22;6943;52.368;9.966;2022-09-09T00:09:19;14.00;99.90
13744;DHT22;6943;52.368;9.966;2022-09-09T00:12:14;14.00;99.90
13744;DHT22;6943;52.368;9.966;2022-09-09T00:15:11;13.90;99.90
13744;DHT22;6943;52.368;9.966;2022-09-09T00:17:49;13.90;99.90
13744;DHT22;6943;52.368;9.966;2022-09-09T00:20:35;13.80;99.90
13744;DHT22;6943;52.368;9.966;2022-09-09T00:23:14;13.80;99.90
13744;DHT22;6943;52.368;9.966;2022-09-09T00:25:47;13.80;99.90
13744;DHT22;6943;52.368;9.966;2022-09-09T00:28:20;13.80;99.90
13744;DHT22;6943;52.368;9.966;2022-09-09T00:30:47;13.80;99.90
13744;DHT22;6943;52.368;9.966;2022-09-09T00:33:15;13.80;99.90
13744;DHT22;6943;52.368;9.966;2022-09-09T00:35:47;13.70;99.90
13744;DHT22;6943;52.368;9.966;2022-09-09T00:38:18;13.70;99.90
13744;DHT22;6943;52.368;9.966;2022-09-09T00:43:35;13.70;99.90
13744;DHT22;6943;52.368;9.966;2022-09-09T00:46:26;13.60;99.90
13744;DHT22;6943;52.368;9.966;2022-09-09T00:51:35;13.60;99.90
13744;DHT22;6943;52.368;9.966;2022-09-09T00:54:26;13.60;99.90
13744;DHT22;6943;52.368;9.966;2022-09-09T00:57:12;13.50;99.90
13744;DHT22;6943;52.368;9.966;2022-09-09T00:59:48;13.50;99.90
13744;DHT22;6943;52.368;9.966;2022-09-09T01:02:27;13.50;99.90
13744;DHT22;6943;52.368;9.966;2022-09-09T01:05:07;13.50;99.90
13744;DHT22;6943;52.368;9.966;2022-09-09T01:07:36;13.50;99.90
13744;DHT22;6943;52.368;9.966;2022-09-09T01:10:08;13.40;99.90
13744;DHT22;6943;52.368;9.966;2022-09-09T01:12:41;13.50;99.90
13744;DHT22;6943;52.368;9.966;2022-09-09T01:15:23;13.50;99.90
13744;DHT22;6943;52.368;9.966;2022-09-09T01:18:02;13.40;99.90
13744;DHT22;6943;52.368;9.966;2022-09-09T01:20:37;13.40;99.90
13744;DHT22;6943;52.368;9.966;2022-09-09T01:23:13;13.40;99.90
13744;DHT22;6943;52.368;9.966;2022-09-09T01:26:06;13.40;99.90
13744;DHT22;6943;52.368;9.966;2022-09-09T01:28:35;13.30;99.90
13744;DHT22;6943;52.368;9.966;2022-09-09T01:31:04;13.30;99.90
13744;DHT22;6943;52.368;9.966;2022-09-09T01:33:31;13.30;99.90
13744;DHT22;6943;52.368;9.966;2022-09-09T01:38:26;13.30;99.90
13744;DHT22;6943;52.368;9.966;2022-09-09T01:40:53;13.20;99.90
13744;DHT22;6943;52.368;9.966;2022-09-09T01:43:23;13.20;99.90
13744;DHT22;6943;52.368;9.966;2022-09-09T01:45:54;13.20;99.90
13744;DHT22;6943;52.368;9.966;2022-09-09T01:48:21;13.20;99.90
13744;DHT22;6943;52.368;9.966;2022-09-09T01:50:48;13.20;99.90
13744;DHT22;6943;52.368;9.966;2022-09-09T01:53:15;13.10;99.90
13744;DHT22;6943;52.368;9.966;2022-09-09T01:55:47;13.10;99.90
13744;DHT22;6943;52.368;9.966;2022-09-09T01:58:31;13.20;99.90
13744;DHT22;6943;52.368;9.966;2022-09-09T02:03:37;13.10;99.90
13744;DHT22;6943;52.368;9.966;2022-09-09T02:06:47;13.10;99.90
13744;DHT22;6943;52.368;9.966;2022-09-09T02:09:07;13.10;99.90
13744;DHT22;6943;52.368;9.966;2022-09-09T02:11:36;13.20;99.90
13744;DHT22;6943;52.368;9.966;2022-09-09T02:16:39;13.30;99.90
13744;DHT22;6943;52.368;9.966;2022-09-09T02:19:16;13.40;99.90
13744;DHT22;6943;52.368;9.966;2022-09-09T02:21:53;13.60;99.90
13744;DHT22;6943;52.368;9.966;2022-09-09T02:24:20;13.50;99.90
13744;DHT22;6943;52.368;9.966;2022-09-09T02:26:48;13.50;99.90
13744;DHT22;6943;52.368;9.966;2022-09-09T02:29:29;13.50;99.90
13744;DHT22;6943;52.368;9.966;2022-09-09T02:32:00;13.50;99.90
13744;DHT22;6943;52.368;9.966;2022-09-09T02:34:30;13.50;99.90
13744;DHT22;6943;52.368;9.966;2022-09-09T02:36:57;13.50;99.90
13744;DHT22;6943;52.368;9.966;2022-09-09T02:39:23;13.40;99.90
13744;DHT22;6943;52.368;9.966;2022-09-09T02:41:49;13.40;99.90
13744;DHT22;6943;52.368;9.966;2022-09-09T02:44:16;13.40;99.90
13744;DHT22;6943;52.368;9.966;2022-09-09T02:46:58;13.40;99.90
13744;DHT22;6943;52.368;9.966;2022-09-09T02:52:20;13.30;99.90
13744;DHT22;6943;52.368;9.966;2022-09-09T02:54:57;13.30;99.90
13744;DHT22;6943;52.368;9.966;2022-09-09T02:57:27;13.30;99.90
13744;DHT22;6943;52.368;9.966;2022-09-09T02:59:55;13.20;99.90
13744;DHT22;6943;52.368;9.966;2022-09-09T03:02:22;13.30;99.90
13744;DHT22;6943;52.368;9.966;2022-09-09T03:04:47;13.30;99.90
13744;DHT22;6943;52.368;9.966;2022-09-09T03:07:17;13.20;99.90
13744;DHT22;6943;52.368;9.966;2022-09-09T03:09:44;13.30;99.90
13744;DHT22;6943;52.368;9.966;2022-09-09T03:12:10;13.30;99.90
13744;DHT22;6943;52.368;9.966;2022-09-09T03:14:37;13.30;99.90
13744;DHT22;6943;52.368;9.966;2022-09-09T03:17:04;13.30;99.90
13744;DHT22;6943;52.368;9.966;2022-09-09T03:19:30;13.40;99.90
13744;DHT22;6943;52.368;9.966;2022-09-09T03:21:57;13.40;99.90
13744;DHT22;6943;52.368;9.966;2022-09-09T03:24:22;13.40;99.90
13744;DHT22;6943;52.368;9.966;2022-09-09T03:26:48;13.60;99.90
13744;DHT22;6943;52.368;9.966;2022-09-09T03:29:14;13.60;99.90
13744;DHT22;6943;52.368;9.966;2022-09-09T03:31:40;13.60;99.90
13744;DHT22;6943;52.368;9.966;2022-09-09T03:34:06;13.60;99.90
13744;DHT22;6943;52.368;9.966;2022-09-09T03:36:32;13.60;99.90
13744;DHT22;6943;52.368;9.966;2022-09-09T03:38:58;13.60;99.90
13744;DHT22;6943;52.368;9.966;2022-09-09T03:41:24;13.70;99.90
13744;DHT22;6943;52.368;9.966;2022-09-09T03:43:53;13.70;99.90
13744;DHT22;6943;52.368;9.966;2022-09-09T03:46:20;13.80;99.90
13744;DHT22;6943;52.368;9.966;2022-09-09T03:48:46;13.80;99.90
13744;DHT22;6943;52.368;9.966;2022-09-09T03:51:12;13.90;99.90
13744;DHT22;6943;52.368;9.966;2022-09-09T03:53:37;14.00;99.90
13744;DHT22;6943;52.368;9.966;2022-09-09T03:56:04;14.00;99.90
13744;DHT22;6943;52.368;9.966;2022-09-09T03:58:32;14.10;99.90
13744;DHT22;6943;52.368;9.966;2022-09-09T04:01:07;14.10;99.90
13744;DHT22;6943;52.368;9.966;2022-09-09T04:03:34;14.20;99.90
13744;DHT22;6943;52.368;9.966;2022-09-09T04:06:02;14.20;99.90
13744;DHT22;6943;52.368;9.966;2022-09-09T04:08:28;14.20;99.90
13744;DHT22;6943;52.368;9.966;2022-09-09T04:10:56;14.30;99.90
13744;DHT22;6943;52.368;9.966;2022-09-09T04:13:23;14.30;99.90
13744;DHT22;6943;52.368;9.966;2022-09-09T04:15:56;14.30;99.90
13744;DHT22;6943;52.368;9.966;2022-09-09T04:18:23;14.30;99.90
13744;DHT22;6943;52.368;9.966;2022-09-09T04:20:50;14.40;99.90
13744;DHT22;6943;52.368;9.966;2022-09-09T04:23:17;14.40;99.90
13744;DHT22;6943;52.368;9.966;2022-09-09T04:25:49;14.40;99.90
13744;DHT22;6943;52.368;9.966;2022-09-09T04:28:16;14.30;99.90
13744;DHT22;6943;52.368;9.966;2022-09-09T04:30:42;14.40;99.90
13744;DHT22;6943;52.368;9.966;2022-09-09T04:33:08;14.40;99.90
13744;DHT22;6943;52.368;9.966;2022-09-09T04:35:34;14.50;99.90
13744;DHT22;6943;52.368;9.966;2022-09-09T04:38:00;14.60;99.90
13744;DHT22;6943;52.368;9.966;2022-09-09T04:40:28;14.50;99.90
13744;DHT22;6943;52.368;9.966;2022-09-09T04:42:55;14.60;99.90
13744;DHT22;6943;52.368;9.966;2022-09-09T04:45:20;14.60;99.90
13744;DHT22;6943;52.368;9.966;2022-09-09T04:47:45;14.60;99.90
13744;DHT22;6943;52.368;9.966;2022-09-09T04:50:11;14.60;99.90
13744;DHT22;6943;52.368;9.966;2022-09-09T04:52:37;14.60;99.90
13744;DHT22;6943;52.368;9.966;2022-09-09T04:55:03;14.60;99.90
13744;DHT22;6943;52.368;9.966;2022-09-09T04:57:29;14.70;99.90
13744;DHT22;6943;52.368;9.966;2022-09-09T04:59:56;14.70;99.90
13744;DHT22;6943;52.368;9.966;2022-09-09T05:02:21;14.70;99.90
13744;DHT22;6943;52.368;9.966;2022-09-09T05:04:47;14.70;99.90
13744;DHT22;6943;52.368;9.966;2022-09-09T05:07:14;14.70;99.90
13744;DHT22;6943;52.368;9.966;2022-09-09T05:09:40;14.80;99.90
13744;DHT22;6943;52.368;9.966;2022-09-09T05:12:05;14.80;99.90
13744;DHT22;6943;52.368;9.966;2022-09-09T05:14:31;14.80;99.90
13744;DHT22;6943;52.368;9.966;2022-09-09T05:16:57;14.90;99.90
13744;DHT22;6943;52.368;9.966;2022-09-09T05:19:23;14.90;99.90
13744;DHT22;6943;52.368;9.966;2022-09-09T05:21:48;15.00;99.90
13744;DHT22;6943;52.368;9.966;2022-09-09T05:24:15;15.00;99.90
13744;DHT22;6943;52.368;9.966;2022-09-09T05:26:41;15.10;99.90
13744;DHT22;6943;52.368;9.966;2022-09-09T05:29:06;15.20;99.90
13744;DHT22;6943;52.368;9.966;2022-09-09T05:31:33;15.10;99.90
13744;DHT22;6943;52.368;9.966;2022-09-09T05:33:59;15.10;99.90
13744;DHT22;6943;52.368;9.966;2022-09-09T05:36:24;15.10;99.90
13744;DHT22;6943;52.368;9.966;2022-09-09T05:38:50;15.20;99.90
13744;DHT22;6943;52.368;9.966;2022-09-09T05:41:16;15.10;99.90
13744;DHT22;6943;52.368;9.966;2022-09-09T05:43:43;15.10;99.90
13744;DHT22;6943;52.368;9.966;2022-09-09T05:46:17;15.10;99.90
13744;DHT22;6943;52.368;9.966;2022-09-09T05:48:45;15.10;99.90
13744;DHT22;6943;52.368;9.966;2022-09-09T05:51:16;15.20;99.90
13744;DHT22;6943;52.368;9.966;2022-09-09T05:53:42;15.30;99.90
13744;DHT22;6943;52.368;9.966;2022-09-09T05:56:14;15.40;99.90
13744;DHT22;6943;52.368;9.966;2022-09-09T05:58:40;15.50;99.90
13744;DHT22;6943;52.368;9.966;2022-09-09T06:01:12;15.70;99.90
13744;DHT22;6943;52.368;9.966;2022-09-09T06:03:40;16.00;99.90
13744;DHT22;6943;52.368;9.966;2022-09-09T06:06:10;16.10;99.90
13744;DHT22;6943;52.368;9.966;2022-09-09T06:08:38;16.30;99.90
13744;DHT22;6943;52.368;9.966;2022-09-09T06:11:06;16.30;99.90
13744;DHT22;6943;52.368;9.966;2022-09-09T06:13:32;16.40;99.90
13744;DHT22;6943;52.368;9.966;2022-09-09T06:15:58;16.40;99.90
13744;DHT22;6943;52.368;9.966;2022-09-09T06:18:25;16.30;99.90
13744;DHT22;6943;52.368;9.966;2022-09-09T06:21:02;16.30;99.90
13744;DHT22;6943;52.368;9.966;2022-09-09T06:23:30;16.30;99.90
13744;DHT22;6943;52.368;9.966;2022-09-09T06:26:07;16.20;99.90
13744;DHT22;6943;52.368;9.966;2022-09-09T06:28:33;16.30;99.90
13744;DHT22;6943;52.368;9.966;2022-09-09T06:31:00;16.60;99.90
13744;DHT22;6943;52.368;9.966;2022-09-09T06:33:26;17.30;99.90
13744;DHT22;6943;52.368;9.966;2022-09-09T06:35:54;20.10;99.90
13744;DHT22;6943;52.368;9.966;2022-09-09T06:38:19;23.30;17.20
13744;DHT22;6943;52.368;9.966;2022-09-09T06:40:57;24.50;1.00
13744;DHT22;6943;52.368;9.966;2022-09-09T06:43:24;23.60;1.00
13744;DHT22;6943;52.368;9.966;2022-09-09T06:45:57;24.80;99.90
13744;DHT22;6943;52.368;9.966;2022-09-09T06:48:23;24.50;69.90
13744;DHT22;6943;52.368;9.966;2022-09-09T06:50:51;23.80;1.00
13744;DHT22;6943;52.368;9.966;2022-09-09T06:53:25;23.20;1.00
13744;DHT22;6943;52.368;9.966;2022-09-09T06:55:51;22.90;1.00
13744;DHT22;6943;52.368;9.966;2022-09-09T06:58:16;22.50;20.20
13744;DHT22;6943;52.368;9.966;2022-09-09T07:00:42;23.50;99.90
13744;DHT22;6943;52.368;9.966;2022-09-09T07:03:08;25.70;1.00
13744;DHT22;6943;52.368;9.966;2022-09-09T07:05:34;27.60;99.90
13744;DHT22;6943;52.368;9.966;2022-09-09T07:08:00;29.50;1.00
13744;DHT22;6943;52.368;9.966;2022-09-09T07:10:25;31.40;1.00
13744;DHT22;6943;52.368;9.966;2022-09-09T07:12:52;31.70;1.00
13744;DHT22;6943;52.368;9.966;2022-09-09T07:15:18;29.70;1.00
13744;DHT22;6943;52.368;9.966;2022-09-09T07:17:44;28.40;1.00
13744;DHT22;6943;52.368;9.966;2022-09-09T07:20:09;27.40;1.00
13744;DHT22;6943;52.368;9.966;2022-09-09T07:22:35;26.80;99.90
13744;DHT22;6943;52.368;9.966;2022-09-09T07:25:00;26.70;99.90
13744;DHT22;6943;52.368;9.966;2022-09-09T07:27:27;27.20;99.90
13744;DHT22;6943;52.368;9.966;2022-09-09T07:29:53;29.60;1.00
13744;DHT22;6943;52.368;9.966;2022-09-09T07:32:19;31.50;1.00
13744;DHT22;6943;52.368;9.966;2022-09-09T07:34:45;32.60;1.00
13744;DHT22;6943;52.368;9.966;2022-09-09T07:37:12;33.40;1.00
13744;DHT22;6943;52.368;9.966;2022-09-09T07:39:39;33.40;1.00
13744;DHT22;6943;52.368;9.966;2022-09-09T07:42:05;34.10;1.00
13744;DHT22;6943;52.368;9.966;2022-09-09T07:44:30;35.00;1.00
13744;DHT22;6943;52.368;9.966;2022-09-09T07:46:57;34.60;1.00
13744;DHT22;6943;52.368;9.966;2022-09-09T07:49:23;34.40;1.00
13744;DHT22;6943;52.368;9.966;2022-09-09T07:51:49;35.20;1.00
13744;DHT22;6943;52.368;9.966;2022-09-09T07:54:17;35.00;1.00
13744;DHT22;6943;52.368;9.966;2022-09-09T07:56:45;35.80;1.00
13744;DHT22;6943;52.368;9.966;2022-09-09T07:59:12;35.60;1.00
13744;DHT22;6943;52.368;9.966;2022-09-09T08:01:43;35.50;99.90
13744;DHT22;6943;52.368;9.966;2022-09-09T08:04:14;33.90;99.90
13744;DHT22;6943;52.368;9.966;2022-09-09T08:06:43;33.60;1.00
13744;DHT22;6943;52.368;9.966;2022-09-09T08:09:09;34.00;1.00
13744;DHT22;6943;52.368;9.966;2022-09-09T08:11:36;34.20;1.00
13744;DHT22;6943;52.368;9.966;2022-09-09T08:14:02;34.10;99.90
13744;DHT22;6943;52.368;9.966;2022-09-09T08:16:30;32.60;1.00
13744;DHT22;6943;52.368;9.966;2022-09-09T08:18:57;32.60;1.00
13744;DHT22;6943;52.368;9.966;2022-09-09T08:21:24;32.70;1.00
13744;DHT22;6943;52.368;9.966;2022-09-09T08:23:52;32.60;1.00
13744;DHT22;6943;52.368;9.966;2022-09-09T08:26:21;31.80;1.00
13744;DHT22;6943;52.368;9.966;2022-09-09T08:28:48;30.00;1.00
13744;DHT22;6943;52.368;9.966;2022-09-09T08:31:16;29.10;1.00
13744;DHT22;6943;52.368;9.966;2022-09-09T08:33:43;28.40;1.00
13744;DHT22;6943;52.368;9.966;2022-09-09T08:36:12;28.20;1.00
13744;DHT22;6943;52.368;9.966;2022-09-09T08:38:38;28.70;1.00
13744;DHT22;6943;52.368;9.966;2022-09-09T08:41:32;30.20;1.00
13744;DHT22;6943;52.368;9.966;2022-09-09T08:44:06;30.60;1.00
13744;DHT22;6943;52.368;9.966;2022-09-09T08:46:46;29.70;1.00
13744;DHT22;6943;52.368;9.966;2022-09-09T08:49:38;29.40;1.00
13744;DHT22;6943;52.368;9.966;2022-09-09T08:52:19;30.10;1.00
13744;DHT22;6943;52.368;9.966;2022-09-09T08:54:47;31.00;1.00
13744;DHT22;6943;52.368;9.966;2022-09-09T08:57:23;32.00;1.00
13744;DHT22;6943;52.368;9.966;2022-09-09T08:59:54;31.60;1.00
13744;DHT22;6943;52.368;9.966;2022-09-09T09:02:38;30.80;1.00
13744;DHT22;6943;52.368;9.966;2022-09-09T09:05:15;29.30;1.00
13744;DHT22;6943;52.368;9.966;2022-09-09T09:10:42;26.30;1.00
13744;DHT22;6943;52.368;9.966;2022-09-09T09:16:17;25.40;99.90
13744;DHT22;6943;52.368;9.966;2022-09-09T09:18:44;25.60;99.90
13744;DHT22;6943;52.368;9.966;2022-09-09T09:21:24;25.60;99.90
13744;DHT22;6943;52.368;9.966;2022-09-09T09:23:56;25.90;99.90
13744;DHT22;6943;52.368;9.966;2022-09-09T09:26:24;25.80;99.90
13744;DHT22;6943;52.368;9.966;2022-09-09T09:28:54;26.20;21.60
13744;DHT22;6943;52.368;9.966;2022-09-09T09:31:21;26.00;16.90
13744;DHT22;6943;52.368;9.966;2022-09-09T09:33:51;26.00;99.90
13744;DHT22;6943;52.368;9.966;2022-09-09T09:36:19;26.00;31.30
13744;DHT22;6943;52.368;9.966;2022-09-09T09:38:59;25.90;14.50
13744;DHT22;6943;52.368;9.966;2022-09-09T09:41:36;25.60;31.50
13744;DHT22;6943;52.368;9.966;2022-09-09T09:44:03;25.20;99.90
13744;DHT22;6943;52.368;9.966;2022-09-09T09:46:30;25.30;99.90
13744;DHT22;6943;52.368;9.966;2022-09-09T09:49:04;24.80;99.90
13744;DHT22;6943;52.368;9.966;2022-09-09T09:51:32;24.50;1.00
13744;DHT22;6943;52.368;9.966;2022-09-09T09:56:39;24.20;1.00
13744;DHT22;6943;52.368;9.966;2022-09-09T09:59:05;24.20;1.00
13744;DHT22;6943;52.368;9.966;2022-09-09T10:01:32;24.00;1.00
13744;DHT22;6943;52.368;9.966;2022-09-09T10:04:01;24.10;1.00
13744;DHT22;6943;52.368;9.966;2022-09-09T10:06:32;23.90;57.50
13744;DHT22;6943;52.368;9.966;2022-09-09T10:08:58;23.80;99.90
13744;DHT22;6943;52.368;9.966;2022-09-09T10:11:35;23.70;99.90
13744;DHT22;6943;52.368;9.966;2022-09-09T10:14:20;23.80;99.90
13744;DHT22;6943;52.368;9.966;2022-09-09T10:19:37;23.60;99.90
13744;DHT22;6943;52.368;9.966;2022-09-09T10:28:20;23.30;1.00
13744;DHT22;6943;52.368;9.966;2022-09-09T10:33:34;23.30;1.00
13744;DHT22;6943;52.368;9.966;2022-09-09T10:36:25;23.10;99.90
13744;DHT22;6943;52.368;9.966;2022-09-09T10:39:05;23.00;1.00
13744;DHT22;6943;52.368;9.966;2022-09-09T10:41:42;23.10;1.00
13744;DHT22;6943;52.368;9.966;2022-09-09T10:44:21;23.10;99.90
13744;DHT22;6943;52.368;9.966;2022-09-09T10:47:06;22.80;1.00
13744;DHT22;6943;52.368;9.966;2022-09-09T10:52:38;22.80;1.00
13744;DHT22;6943;52.368;9.966;2022-09-09T10:55:14;22.80;1.00
13744;DHT22;6943;52.368;9.966;2022-09-09T10:57:50;22.70;25.90
13744;DHT22;6943;52.368;9.966;2022-09-09T11:00:27;22.60;99.90
13744;DHT22;6943;52.368;9.966;2022-09-09T11:03:02;22.40;1.00
13744;DHT22;6943;52.368;9.966;2022-09-09T11:05:39;22.20;1.00
13744;DHT22;6943;52.368;9.966;2022-09-09T11:08:19;22.20;99.90
13744;DHT22;6943;52.368;9.966;2022-09-09T11:11:07;22.10;99.90
13744;DHT22;6943;52.368;9.966;2022-09-09T11:13:43;22.30;99.90
13744;DHT22;6943;52.368;9.966;2022-09-09T11:19:04;23.10;1.00
13744;DHT22;6943;52.368;9.966;2022-09-09T11:21:45;23.40;1.00
13744;DHT22;6943;52.368;9.966;2022-09-09T11:26:57;24.20;99.90
13744;DHT22;6943;52.368;9.966;2022-09-09T11:32:59;24.70;1.00
13744;DHT22;6943;52.368;9.966;2022-09-09T11:38:26;24.10;1.00
13744;DHT22;6943;52.368;9.966;2022-09-09T11:40:59;23.80;1.00
13744;DHT22;6943;52.368;9.966;2022-09-09T11:43:38;23.20;1.00
13744;DHT22;6943;52.368;9.966;2022-09-09T11:46:05;22.80;99.90
13744;DHT22;6943;52.368;9.966;2022-09-09T11:51:08;21.90;1.00
13744;DHT22;6943;52.368;9.966;2022-09-09T11:53:35;21.70;99.90
13744;DHT22;6943;52.368;9.966;2022-09-09T11:56:06;21.40;1.00
13744;DHT22;6943;52.368;9.966;2022-09-09T11:58:41;21.10;17.50
13744;DHT22;6943;52.368;9.966;2022-09-09T12:01:26;20.80;99.90
13744;DHT22;6943;52.368;9.966;2022-09-09T12:04:01;20.50;99.90
13744;DHT22;6943;52.368;9.966;2022-09-09T12:06:32;20.50;1.00
13744;DHT22;6943;52.368;9.966;2022-09-09T12:09:29;20.50;99.90
13744;DHT22;6943;52.368;9.966;2022-09-09T12:12:06;20.40;1.00
13744;DHT22;6943;52.368;9.966;2022-09-09T12:19:39;20.30;99.90
13744;DHT22;6943;52.368;9.966;2022-09-09T12:27:53;20.40;99.90
13744;DHT22;6943;52.368;9.966;2022-09-09T12:30:24;20.40;1.00
13744;DHT22;6943;52.368;9.966;2022-09-09T12:33:06;20.50;1.00
13744;DHT22;6943;52.368;9.966;2022-09-09T12:35:33;20.60;1.00
13744;DHT22;6943;52.368;9.966;2022-09-09T12:38:02;20.80;99.90
13744;DHT22;6943;52.368;9.966;2022-09-09T12:40:31;20.90;1.00
13744;DHT22;6943;52.368;9.966;2022-09-09T12:42:57;20.70;1.00
13744;DHT22;6943;52.368;9.966;2022-09-09T12:45:27;20.60;1.00
13744;DHT22;6943;52.368;9.966;2022-09-09T12:47:58;20.50;21.70
13744;DHT22;6943;52.368;9.966;2022-09-09T12:50:29;20.50;1.00
13744;DHT22;6943;52.368;9.966;2022-09-09T12:53:01;20.70;99.90
13744;DHT22;6943;52.368;9.966;2022-09-09T12:55:32;20.90;99.90
13744;DHT22;6943;52.368;9.966;2022-09-09T12:58:01;21.00;1.00
13744;DHT22;6943;52.368;9.966;2022-09-09T13:00:29;21.00;1.00
13744;DHT22;6943;52.368;9.966;2022-09-09T13:02:58;20.60;99.90
13744;DHT22;6943;52.368;9.966;2022-09-09T13:05:38;20.20;99.90
13744;DHT22;6943;52.368;9.966;2022-09-09T13:08:06;19.80;38.50
13744;DHT22;6943;52.368;9.966;2022-09-09T13:10:38;19.50;99.90
13744;DHT22;6943;52.368;9.966;2022-09-09T13:13:15;19.30;99.90
13744;DHT22;6943;52.368;9.966;2022-09-09T13:15:50;19.20;99.90
13744;DHT22;6943;52.368;9.966;2022-09-09T13:18:18;19.30;1.00
13744;DHT22;6943;52.368;9.966;2022-09-09T13:20:47;19.50;1.00
13744;DHT22;6943;52.368;9.966;2022-09-09T13:23:15;19.80;1.00
13744;DHT22;6943;52.368;9.966;2022-09-09T13:25:41;19.90;1.00
13744;DHT22;6943;52.368;9.966;2022-09-09T13:28:21;20.10;1.00
13744;DHT22;6943;52.368;9.966;2022-09-09T13:30:59;20.20;99.90
13744;DHT22;6943;52.368;9.966;2022-09-09T13:33:31;20.40;1.00
13744;DHT22;6943;52.368;9.966;2022-09-09T13:36:11;20.70;1.00
13744;DHT22;6943;52.368;9.966;2022-09-09T13:39:02;21.00;8.40
13744;DHT22;6943;52.368;9.966;2022-09-09T13:41:41;21.10;99.90
13744;DHT22;6943;52.368;9.966;2022-09-09T13:44:25;21.40;99.90
13744;DHT22;6943;52.368;9.966;2022-09-09T13:47:15;21.30;1.00
13744;DHT22;6943;52.368;9.966;2022-09-09T13:49:42;21.10;1.00
13744;DHT22;6943;52.368;9.966;2022-09-09T13:52:13;20.90;1.00
13744;DHT22;6943;52.368;9.966;2022-09-09T13:54:40;20.70;1.00
13744;DHT22;6943;52.368;9.966;2022-09-09T13:57:18;20.90;62.10
13744;DHT22;6943;52.368;9.966;2022-09-09T13:59:46;20.80;1.00
13744;DHT22;6943;52.368;9.966;2022-09-09T14:02:12;20.80;1.00
13744;DHT22;6943;52.368;9.966;2022-09-09T14:04:37;20.80;1.00
13744;DHT22;6943;52.368;9.966;2022-09-09T14:07:03;20.90;99.90
13744;DHT22;6943;52.368;9.966;2022-09-09T14:09:29;20.80;1.00
13744;DHT22;6943;52.368;9.966;2022-09-09T14:11:54;20.50;99.90
13744;DHT22;6943;52.368;9.966;2022-09-09T14:14:23;20.60;1.00
13744;DHT22;6943;52.368;9.966;2022-09-09T14:16:48;20.80;1.00
13744;DHT22;6943;52.368;9.966;2022-09-09T14:19:14;21.10;80.00
13744;DHT22;6943;52.368;9.966;2022-09-09T14:21:39;21.20;99.90
13744;DHT22;6943;52.368;9.966;2022-09-09T14:24:05;21.20;1.00
13744;DHT22;6943;52.368;9.966;2022-09-09T14:26:31;21.20;19.20
13744;DHT22;6943;52.368;9.966;2022-09-09T14:28:57;21.20;99.90
13744;DHT22;6943;52.368;9.966;2022-09-09T14:31:24;21.10;1.00
13744;DHT22;6943;52.368;9.966;2022-09-09T14:33:50;21.20;1.00
13744;DHT22;6943;52.368;9.966;2022-09-09T14:36:16;21.10;1.00
13744;DHT22;6943;52.368;9.966;2022-09-09T14:38:42;21.30;1.00
13744;DHT22;6943;52.368;9.966;2022-09-09T14:41:11;21.70;1.00
13744;DHT22;6943;52.368;9.966;2022-09-09T14:43:40;22.00;1.00
13744;DHT22;6943;52.368;9.966;2022-09-09T14:46:24;21.90;1.00
13744;DHT22;6943;52.368;9.966;2022-09-09T14:48:50;22.00;1.00
13744;DHT22;6943;52.368;9.966;2022-09-09T14:51:19;21.90;99.90
13744;DHT22;6943;52.368;9.966;2022-09-09T14:53:45;21.80;99.90
13744;DHT22;6943;52.368;9.966;2022-09-09T14:56:17;21.90;99.90
13744;DHT22;6943;52.368;9.966;2022-09-09T14:58:43;22.00;99.90
13744;DHT22;6943;52.368;9.966;2022-09-09T15:01:14;22.40;1.00
13744;DHT22;6943;52.368;9.966;2022-09-09T15:03:41;22.80;1.00
13744;DHT22;6943;52.368;9.966;2022-09-09T15:06:12;22.60;1.00
13744;DHT22;6943;52.368;9.966;2022-09-09T15:08:41;22.50;99.90
13744;DHT22;6943;52.368;9.966;2022-09-09T15:11:07;22.40;1.00
13744;DHT22;6943;52.368;9.966;2022-09-09T15:13:34;22.30;99.90
13744;DHT22;6943;52.368;9.966;2022-09-09T15:16:08;22.00;1.00
13744;DHT22;6943;52.368;9.966;2022-09-09T15:18:34;22.10;1.00
13744;DHT22;6943;52.368;9.966;2022-09-09T15:21:04;22.20;1.00
13744;DHT22;6943;52.368;9.966;2022-09-09T15:23:32;22.20;99.90
13744;DHT22;6943;52.368;9.966;2022-09-09T15:25:57;22.30;1.00
13744;DHT22;6943;52.368;9.966;2022-09-09T15:28:23;22.30;1.00
13744;DHT22;6943;52.368;9.966;2022-09-09T15:30:50;22.10;66.60
13744;DHT22;6943;52.368;9.966;2022-09-09T15:33:17;22.00;1.00
13744;DHT22;6943;52.368;9.966;2022-09-09T15:35:43;21.90;1.00
13744;DHT22;6943;52.368;9.966;2022-09-09T15:38:08;21.80;1.00
13744;DHT22;6943;52.368;9.966;2022-09-09T15:40:34;21.60;99.90
13744;DHT22;6943;52.368;9.966;2022-09-09T15:42:59;21.10;1.00
13744;DHT22;6943;52.368;9.966;2022-09-09T15:45:25;21.00;1.00
13744;DHT22;6943;52.368;9.966;2022-09-09T15:47:52;21.00;99.90
13744;DHT22;6943;52.368;9.966;2022-09-09T15:50:17;21.10;99.90
13744;DHT22;6943;52.368;9.966;2022-09-09T15:52:43;21.10;99.90
13744;DHT22;6943;52.368;9.966;2022-09-09T15:55:09;21.00;1.00
13744;DHT22;6943;52.368;9.966;2022-09-09T15:57:35;21.00;99.90
13744;DHT22;6943;52.368;9.966;2022-09-09T16:00:03;21.00;1.00
13744;DHT22;6943;52.368;9.966;2022-09-09T16:02:29;20.90;1.00
13744;DHT22;6943;52.368;9.966;2022-09-09T16:04:56;20.90;1.00
13744;DHT22;6943;52.368;9.966;2022-09-09T16:07:22;20.90;99.90
13744;DHT22;6943;52.368;9.966;2022-09-09T16:09:48;20.80;99.90
13744;DHT22;6943;52.368;9.966;2022-09-09T16:12:16;20.70;1.00
13744;DHT22;6943;52.368;9.966;2022-09-09T16:14:41;20.80;1.00
13744;DHT22;6943;52.368;9.966;2022-09-09T16:17:07;20.80;1.00
13744;DHT22;6943;52.368;9.966;2022-09-09T16:19:33;20.90;99.90
13744;DHT22;6943;52.368;9.966;2022-09-09T16:22:00;21.00;99.90
13744;DHT22;6943;52.368;9.966;2022-09-09T16:24:26;21.00;1.00
13744;DHT22;6943;52.368;9.966;2022-09-09T16:26:53;21.00;1.00
13744;DHT22;6943;52.368;9.966;2022-09-09T16:29:20;21.00;1.00
13744;DHT22;6943;52.368;9.966;2022-09-09T16:31:48;21.00;1.00
13744;DHT22;6943;52.368;9.966;2022-09-09T16:34:15;21.00;1.00
13744;DHT22;6943;52.368;9.966;2022-09-09T16:36:42;21.00;1.00
13744;DHT22;6943;52.368;9.966;2022-09-09T16:39:10;21.00;1.00
13744;DHT22;6943;52.368;9.966;2022-09-09T16:41:38;20.90;1.00
13744;DHT22;6943;52.368;9.966;2022-09-09T16:44:08;20.80;1.00
13744;DHT22;6943;52.368;9.966;2022-09-09T16:46:36;20.80;1.00
13744;DHT22;6943;52.368;9.966;2022-09-09T16:49:05;20.60;1.00
13744;DHT22;6943;52.368;9.966;2022-09-09T16:51:39;20.50;99.90
13744;DHT22;6943;52.368;9.966;2022-09-09T16:54:07;20.40;99.90
13744;DHT22;6943;52.368;9.966;2022-09-09T16:56:34;20.30;1.00
13744;DHT22;6943;52.368;9.966;2022-09-09T16:59:04;20.20;1.00
13744;DHT22;6943;52.368;9.966;2022-09-09T17:01:32;20.10;1.00
13744;DHT22;6943;52.368;9.966;2022-09-09T17:04:00;20.00;25.90
13744;DHT22;6943;52.368;9.966;2022-09-09T17:06:30;19.80;99.90
13744;DHT22;6943;52.368;9.966;2022-09-09T17:09:01;19.80;1.00
13744;DHT22;6943;52.368;9.966;2022-09-09T17:11:28;19.70;47.00
13744;DHT22;6943;52.368;9.966;2022-09-09T17:13:55;19.60;1.00
13744;DHT22;6943;52.368;9.966;2022-09-09T17:16:22;19.50;1.00
13744;DHT22;6943;52.368;9.966;2022-09-09T17:18:52;19.40;1.00